sensor_id;sensor_type;location;lat;lon;timestamp;pressure;altitude;pressure_sealevel;temperature;humidity
69247;BME280;56358;56.328;43.992;2024-01-27T00:01:25;100690.59;;;-6.87;73.58
69247;BME280;56358;56.328;43.992;2024-01-27T00:03:25;100734.75;;;-6.38;73.83
69247;BME280;56358;56.328;43.992;2024-01-27T00:05:26;100733.88;;;-6.37;74.22
69247;BME280;56358;56.328;43.992;2024-01-27T00:07:27;100734.75;;;-6.36;74.36
69247;BME280;56358;56.328;43.992;2024-01-27T00:09:28;100727.78;;;-6.34;74.58
69247;BME280;56358;56.328;43.992;2024-01-27T00:11:29;100727.78;;;-6.34;74.74
69247;BME280;56358;56.328;43.992;2024-01-27T00:13:29;100726.03;;;-6.32;74.65
69247;BME280;56358;56.328;43.992;2024-01-27T00:15:30;100729.53;;;-6.32;74.43
69247;BME280;56358;56.328;43.992;2024-01-27T00:17:31;100622.84;;;-6.94;74.10
69247;BME280;56358;56.328;43.992;2024-01-27T00:19:31;100687.03;;;-6.60;74.10
69247;BME280;56358;56.328;43.992;2024-01-27T00:21:32;100726.91;;;-6.33;74.36
69247;BME280;56358;56.328;43.992;2024-01-27T00:23:33;100742.56;;;-6.30;74.41
69247;BME280;56358;56.328;43.992;2024-01-27T00:25:34;100741.69;;;-6.29;74.69
69247;BME280;56358;56.328;43.992;2024-01-27T00:27:35;100730.34;;;-6.28;74.38
69247;BME280;56358;56.328;43.992;2024-01-27T00:29:36;100722.59;;;-6.37;74.26
69247;BME280;56358;56.328;43.992;2024-01-27T00:31:37;100724.28;;;-6.30;74.31
69247;BME280;56358;56.328;43.992;2024-01-27T00:33:37;100670.53;;;-6.65;74.40
69247;BME280;56358;56.328;43.992;2024-01-27T00:35:38;100737.31;;;-6.29;74.51
69247;BME280;56358;56.328;43.992;2024-01-27T00:37:39;100726.00;;;-6.26;74.26
69247;BME280;56358;56.328;43.992;2024-01-27T00:39:40;100727.75;;;-6.27;74.30
69247;BME280;56358;56.328;43.992;2024-01-27T00:41:41;100723.44;;;-6.31;74.39
69247;BME280;56358;56.328;43.992;2024-01-27T00:43:42;100730.38;;;-6.27;74.15
69247;BME280;56358;56.328;43.992;2024-01-27T00:45:42;100720.81;;;-6.34;74.10
69247;BME280;56358;56.328;43.992;2024-01-27T00:47:43;100719.03;;;-6.27;74.34
69247;BME280;56358;56.328;43.992;2024-01-27T00:49:44;100724.28;;;-6.30;74.24
69247;BME280;56358;56.328;43.992;2024-01-27T00:51:45;100735.59;;;-6.27;74.47
69247;BME280;56358;56.328;43.992;2024-01-27T00:53:45;100718.22;;;-6.34;74.48
69247;BME280;56358;56.328;43.992;2024-01-27T00:55:46;100742.53;;;-6.24;74.86
69247;BME280;56358;56.328;43.992;2024-01-27T00:57:47;100514.50;;;-7.53;74.67
69247;BME280;56358;56.328;43.992;2024-01-27T00:59:47;100735.53;;;-6.20;75.03
69247;BME280;56358;56.328;43.992;2024-01-27T01:01:48;100635.78;;;-6.77;74.69
69247;BME280;56358;56.328;43.992;2024-01-27T01:03:49;100643.59;;;-6.69;74.68
69247;BME280;56358;56.328;43.992;2024-01-27T01:05:50;100648.84;;;-6.78;74.49
69247;BME280;56358;56.328;43.992;2024-01-27T01:07:51;100726.91;;;-6.33;74.67
69247;BME280;56358;56.328;43.992;2024-01-27T01:09:51;100749.47;;;-6.23;74.83
69247;BME280;56358;56.328;43.992;2024-01-27T01:11:52;100725.19;;;-6.36;74.49
69247;BME280;56358;56.328;43.992;2024-01-27T01:13:53;100737.34;;;-6.32;74.32
69247;BME280;56358;56.328;43.992;2024-01-27T01:15:53;100746.00;;;-6.28;74.33
69247;BME280;56358;56.328;43.992;2024-01-27T01:17:54;100744.28;;;-6.29;74.16
69247;BME280;56358;56.328;43.992;2024-01-27T01:19:55;100738.19;;;-6.31;74.33
69247;BME280;56358;56.328;43.992;2024-01-27T01:21:55;100758.22;;;-6.33;74.20
69247;BME280;56358;56.328;43.992;2024-01-27T01:23:56;100648.91;;;-6.95;74.08
69247;BME280;56358;56.328;43.992;2024-01-27T01:25:56;100739.16;;;-6.51;74.21
69247;BME280;56358;56.328;43.992;2024-01-27T01:27:57;100740.88;;;-6.47;74.56
69247;BME280;56358;56.328;43.992;2024-01-27T01:29:58;100701.03;;;-6.91;74.72
69247;BME280;56358;56.328;43.992;2024-01-27T01:31:58;100739.16;;;-6.54;74.66
69247;BME280;56358;56.328;43.992;2024-01-27T01:33:59;100745.25;;;-6.57;74.56
69247;BME280;56358;56.328;43.992;2024-01-27T01:36:00;100749.59;;;-6.55;74.63
69247;BME280;56358;56.328;43.992;2024-01-27T01:38:00;100748.75;;;-6.62;74.67
69247;BME280;56358;56.328;43.992;2024-01-27T01:40:01;100745.28;;;-6.61;74.94
69247;BME280;56358;56.328;43.992;2024-01-27T01:42:05;100748.75;;;-6.62;75.30
69247;BME280;56358;56.328;43.992;2024-01-27T01:44:06;100749.66;;;-6.68;75.16
69247;BME280;56358;56.328;43.992;2024-01-27T01:46:07;100747.91;;;-6.70;75.35
69247;BME280;56358;56.328;43.992;2024-01-27T01:48:08;100678.50;;;-7.07;75.33
69247;BME280;56358;56.328;43.992;2024-01-27T01:50:10;100750.50;;;-6.61;75.39
69247;BME280;56358;56.328;43.992;2024-01-27T01:52:11;100738.34;;;-6.67;75.32
69247;BME280;56358;56.328;43.992;2024-01-27T01:54:12;100673.25;;;-7.02;75.15
69247;BME280;56358;56.328;43.992;2024-01-27T01:56:14;100690.66;;;-7.03;75.26
69247;BME280;56358;56.328;43.992;2024-01-27T01:58:15;100753.16;;;-6.74;75.05
69247;BME280;56358;56.328;43.992;2024-01-27T02:00:17;100738.38;;;-6.81;75.55
69247;BME280;56358;56.328;43.992;2024-01-27T02:02:18;100669.81;;;-7.15;75.64
69247;BME280;56358;56.328;43.992;2024-01-27T02:04:18;100756.59;;;-6.70;75.78
69247;BME280;56358;56.328;43.992;2024-01-27T02:06:19;100773.13;;;-6.69;75.75
69247;BME280;56358;56.328;43.992;2024-01-27T02:08:19;100767.91;;;-6.68;75.71
69247;BME280;56358;56.328;43.992;2024-01-27T02:10:20;100753.09;;;-6.66;75.63
69247;BME280;56358;56.328;43.992;2024-01-27T02:12:21;100740.09;;;-6.70;75.50
69247;BME280;56358;56.328;43.992;2024-01-27T02:14:22;100756.56;;;-6.61;75.52
69247;BME280;56358;56.328;43.992;2024-01-27T02:16:25;100747.00;;;-6.63;75.44
69247;BME280;56358;56.328;43.992;2024-01-27T02:18:26;100747.00;;;-6.63;75.27
69247;BME280;56358;56.328;43.992;2024-01-27T02:20:27;100746.13;;;-6.61;75.70
69247;BME280;56358;56.328;43.992;2024-01-27T02:22:27;100744.41;;;-6.59;75.69
69247;BME280;56358;56.328;43.992;2024-01-27T02:24:28;100742.66;;;-6.60;75.78
69247;BME280;56358;56.328;43.992;2024-01-27T02:26:28;100739.19;;;-6.62;75.83
69247;BME280;56358;56.328;43.992;2024-01-27T02:28:29;100759.19;;;-6.58;75.74
69247;BME280;56358;56.328;43.992;2024-01-27T02:30:32;100740.94;;;-6.71;76.15
69247;BME280;56358;56.328;43.992;2024-01-27T02:32:33;100736.59;;;-6.66;76.02
69247;BME280;56358;56.328;43.992;2024-01-27T02:34:33;100755.69;;;-6.57;75.95
69247;BME280;56358;56.328;43.992;2024-01-27T02:36:34;100753.97;;;-6.58;76.00
69247;BME280;56358;56.328;43.992;2024-01-27T02:38:35;100740.94;;;-6.71;75.99
69247;BME280;56358;56.328;43.992;2024-01-27T02:40:35;100760.06;;;-6.74;76.11
69247;BME280;56358;56.328;43.992;2024-01-27T02:42:37;100754.00;;;-6.76;76.16
69247;BME280;56358;56.328;43.992;2024-01-27T02:44:37;100779.19;;;-6.69;76.32
69247;BME280;56358;56.328;43.992;2024-01-27T02:46:38;100768.78;;;-6.64;76.51
69247;BME280;56358;56.328;43.992;2024-01-27T02:48:42;100733.19;;;-6.87;76.31
69247;BME280;56358;56.328;43.992;2024-01-27T02:50:43;100757.47;;;-6.68;76.42
69247;BME280;56358;56.328;43.992;2024-01-27T02:52:45;100773.97;;;-6.67;76.51
69247;BME280;56358;56.328;43.992;2024-01-27T02:54:46;100758.31;;;-6.66;76.57
69247;BME280;56358;56.328;43.992;2024-01-27T02:56:46;100776.59;;;-6.63;76.56
69247;BME280;56358;56.328;43.992;2024-01-27T02:58:47;100771.38;;;-6.63;76.61
69247;BME280;56358;56.328;43.992;2024-01-27T03:00:48;100672.41;;;-7.17;76.49
69247;BME280;56358;56.328;43.992;2024-01-27T03:02:48;100780.03;;;-6.62;76.44
69247;BME280;56358;56.328;43.992;2024-01-27T03:04:49;100703.66;;;-6.98;76.37
69247;BME280;56358;56.328;43.992;2024-01-27T03:06:50;100766.13;;;-6.60;76.45
69247;BME280;56358;56.328;43.992;2024-01-27T03:08:50;100773.94;;;-6.58;76.34
69247;BME280;56358;56.328;43.992;2024-01-27T03:10:51;100675.03;;;-7.12;76.57
69247;BME280;56358;56.328;43.992;2024-01-27T03:12:52;100770.47;;;-6.55;76.32
69247;BME280;56358;56.328;43.992;2024-01-27T03:14:53;100773.91;;;-6.47;76.35
69247;BME280;56358;56.328;43.992;2024-01-27T03:16:55;100777.44;;;-6.58;76.23
69247;BME280;56358;56.328;43.992;2024-01-27T03:18:55;100787.81;;;-6.42;76.21
69247;BME280;56358;56.328;43.992;2024-01-27T03:20:56;100786.09;;;-6.40;76.39
69247;BME280;56358;56.328;43.992;2024-01-27T03:22:57;100784.31;;;-6.38;76.33
69247;BME280;56358;56.328;43.992;2024-01-27T03:24:57;100783.47;;;-6.38;76.37
69247;BME280;56358;56.328;43.992;2024-01-27T03:26:58;100785.19;;;-6.36;76.18
69247;BME280;56358;56.328;43.992;2024-01-27T03:28:59;100793.88;;;-6.35;76.09
69247;BME280;56358;56.328;43.992;2024-01-27T03:30:59;100774.78;;;-6.45;75.93
69247;BME280;56358;56.328;43.992;2024-01-27T03:33:00;100786.94;;;-6.40;75.70
69247;BME280;56358;56.328;43.992;2024-01-27T03:35:01;100709.72;;;-7.01;75.72
69247;BME280;56358;56.328;43.992;2024-01-27T03:37:02;100792.16;;;-6.46;75.94
69247;BME280;56358;56.328;43.992;2024-01-27T03:39:02;100792.16;;;-6.46;76.18
69247;BME280;56358;56.328;43.992;2024-01-27T03:41:04;100802.63;;;-6.49;76.07
69247;BME280;56358;56.328;43.992;2024-01-27T03:43:05;100800.00;;;-6.49;75.97
69247;BME280;56358;56.328;43.992;2024-01-27T03:45:06;100783.50;;;-6.62;76.01
69247;BME280;56358;56.328;43.992;2024-01-27T03:47:07;100775.69;;;-6.65;76.27
69247;BME280;56358;56.328;43.992;2024-01-27T03:49:08;100801.75;;;-6.48;76.16
69247;BME280;56358;56.328;43.992;2024-01-27T03:51:08;100781.78;;;-6.58;76.41
69247;BME280;56358;56.328;43.992;2024-01-27T03:53:10;100833.91;;;-6.43;76.24
69247;BME280;56358;56.328;43.992;2024-01-27T03:55:10;100767.00;;;-6.61;76.24
69247;BME280;56358;56.328;43.992;2024-01-27T03:57:11;100787.00;;;-6.53;76.05
69247;BME280;56358;56.328;43.992;2024-01-27T03:59:12;100783.47;;;-6.46;76.16
69247;BME280;56358;56.328;43.992;2024-01-27T04:01:14;100777.44;;;-6.54;76.04
69247;BME280;56358;56.328;43.992;2024-01-27T04:03:15;100804.34;;;-6.37;75.95
69247;BME280;56358;56.328;43.992;2024-01-27T04:05:16;100777.41;;;-6.53;75.90
69247;BME280;56358;56.328;43.992;2024-01-27T04:07:16;100809.53;;;-6.35;75.90
69247;BME280;56358;56.328;43.992;2024-01-27T04:09:17;100800.84;;;-6.39;75.98
69247;BME280;56358;56.328;43.992;2024-01-27T04:11:22;100807.78;;;-6.35;75.97
69247;BME280;56358;56.328;43.992;2024-01-27T04:13:23;100739.22;;;-6.77;76.24
69247;BME280;56358;56.328;43.992;2024-01-27T04:15:23;100810.44;;;-6.44;75.99
69247;BME280;56358;56.328;43.992;2024-01-27T04:17:24;100810.44;;;-6.46;76.30
69247;BME280;56358;56.328;43.992;2024-01-27T04:19:24;100822.63;;;-6.52;76.45
69247;BME280;56358;56.328;43.992;2024-01-27T04:21:25;100822.66;;;-6.51;76.61
69247;BME280;56358;56.328;43.992;2024-01-27T04:23:26;100821.75;;;-6.53;76.82
69247;BME280;56358;56.328;43.992;2024-01-27T04:25:26;100804.38;;;-6.55;76.77
69247;BME280;56358;56.328;43.992;2024-01-27T04:27:27;100817.41;;;-6.49;76.79
69247;BME280;56358;56.328;43.992;2024-01-27T04:29:28;100822.63;;;-6.52;76.88
69247;BME280;56358;56.328;43.992;2024-01-27T04:31:29;100819.13;;;-6.48;77.04
69247;BME280;56358;56.328;43.992;2024-01-27T04:33:32;100824.34;;;-6.42;76.76
69247;BME280;56358;56.328;43.992;2024-01-27T04:35:33;100819.13;;;-6.41;76.86
69247;BME280;56358;56.328;43.992;2024-01-27T04:37:34;100832.13;;;-6.30;76.78
69247;BME280;56358;56.328;43.992;2024-01-27T04:39:34;100822.56;;;-6.28;76.60
69247;BME280;56358;56.328;43.992;2024-01-27T04:41:41;100843.41;;;-6.21;76.49
69247;BME280;56358;56.328;43.992;2024-01-27T04:43:43;100844.28;;;-6.26;76.14
69247;BME280;56358;56.328;43.992;2024-01-27T04:45:44;100726.22;;;-6.79;76.26
69247;BME280;56358;56.328;43.992;2024-01-27T04:47:45;100821.66;;;-6.19;75.89
69247;BME280;56358;56.328;43.992;2024-01-27T04:49:45;100832.94;;;-6.14;75.64
69247;BME280;56358;56.328;43.992;2024-01-27T04:51:46;100827.72;;;-6.12;75.75
69247;BME280;56358;56.328;43.992;2024-01-27T04:53:47;100837.34;;;-6.17;75.50
69247;BME280;56358;56.328;43.992;2024-01-27T04:55:47;100817.34;;;-6.28;75.45
69247;BME280;56358;56.328;43.992;2024-01-27T04:57:48;100857.34;;;-6.19;75.55
69247;BME280;56358;56.328;43.992;2024-01-27T04:59:49;100850.38;;;-6.17;75.75
69247;BME280;56358;56.328;43.992;2024-01-27T05:01:49;100754.91;;;-6.80;75.79
69247;BME280;56358;56.328;43.992;2024-01-27T05:03:50;100835.63;;;-6.34;75.77
69247;BME280;56358;56.328;43.992;2024-01-27T05:05:51;100858.22;;;-6.25;75.93
69247;BME280;56358;56.328;43.992;2024-01-27T05:07:51;100845.22;;;-6.42;76.03
69247;BME280;56358;56.328;43.992;2024-01-27T05:09:52;100860.84;;;-6.25;76.01
69247;BME280;56358;56.328;43.992;2024-01-27T05:11:53;100881.72;;;-6.27;75.63
69247;BME280;56358;56.328;43.992;2024-01-27T05:13:53;100866.91;;;-6.26;75.66
69247;BME280;56358;56.328;43.992;2024-01-27T05:15:54;100860.84;;;-6.27;75.68
69247;BME280;56358;56.328;43.992;2024-01-27T05:17:55;100856.50;;;-6.29;75.78
69247;BME280;56358;56.328;43.992;2024-01-27T05:19:57;100868.66;;;-6.25;75.90
69247;BME280;56358;56.328;43.992;2024-01-27T05:21:57;100827.81;;;-6.45;75.71
69247;BME280;56358;56.328;43.992;2024-01-27T05:23:58;100857.34;;;-6.29;75.78
69247;BME280;56358;56.328;43.992;2024-01-27T05:25:58;100765.31;;;-6.82;75.86
69247;BME280;56358;56.328;43.992;2024-01-27T05:27:59;100867.78;;;-6.29;75.66
69247;BME280;56358;56.328;43.992;2024-01-27T05:30:00;100878.22;;;-6.27;75.76
69247;BME280;56358;56.328;43.992;2024-01-27T05:32:00;100863.47;;;-6.37;75.85
69247;BME280;56358;56.328;43.992;2024-01-27T05:34:01;100648.19;;;-7.67;75.30
69247;BME280;56358;56.328;43.992;2024-01-27T05:36:02;100889.56;;;-6.34;75.78
69247;BME280;56358;56.328;43.992;2024-01-27T05:38:03;100902.63;;;-6.36;75.84
69247;BME280;56358;56.328;43.992;2024-01-27T05:40:04;100885.19;;;-6.35;75.80
69247;BME280;56358;56.328;43.992;2024-01-27T05:42:06;100816.59;;;-6.75;75.72
69247;BME280;56358;56.328;43.992;2024-01-27T05:44:07;100794.00;;;-6.89;75.89
69247;BME280;56358;56.328;43.992;2024-01-27T05:46:09;100886.94;;;-6.31;76.14
69247;BME280;56358;56.328;43.992;2024-01-27T05:48:10;100879.13;;;-6.33;76.04
69247;BME280;56358;56.328;43.992;2024-01-27T05:50:11;100880.84;;;-6.36;75.73
69247;BME280;56358;56.328;43.992;2024-01-27T05:52:12;100883.44;;;-6.27;75.86
69247;BME280;56358;56.328;43.992;2024-01-27T05:54:13;100828.75;;;-6.69;75.66
69247;BME280;56358;56.328;43.992;2024-01-27T05:56:17;100894.78;;;-6.34;75.74
69247;BME280;56358;56.328;43.992;2024-01-27T05:58:26;100880.84;;;-6.36;75.82
69247;BME280;56358;56.328;43.992;2024-01-27T06:00:27;100883.44;;;-6.35;75.86
69247;BME280;56358;56.328;43.992;2024-01-27T06:02:28;100885.19;;;-6.34;75.93
69247;BME280;56358;56.328;43.992;2024-01-27T06:04:28;100889.56;;;-6.33;75.96
69247;BME280;56358;56.328;43.992;2024-01-27T06:06:30;100888.69;;;-6.30;75.63
69247;BME280;56358;56.328;43.992;2024-01-27T06:08:30;100893.88;;;-6.29;76.06
69247;BME280;56358;56.328;43.992;2024-01-27T06:10:31;100888.66;;;-6.29;76.27
69247;BME280;56358;56.328;43.992;2024-01-27T06:12:32;100874.78;;;-6.37;76.39
69247;BME280;56358;56.328;43.992;2024-01-27T06:14:32;100890.41;;;-6.20;76.24
69247;BME280;56358;56.328;43.992;2024-01-27T06:16:33;100903.44;;;-6.15;76.46
69247;BME280;56358;56.328;43.992;2024-01-27T06:18:36;100910.38;;;-6.11;76.13
69247;BME280;56358;56.328;43.992;2024-01-27T06:20:37;100902.56;;;-6.07;76.14
69247;BME280;56358;56.328;43.992;2024-01-27T06:22:37;100751.47;;;-6.98;76.03
69247;BME280;56358;56.328;43.992;2024-01-27T06:24:44;100899.06;;;-6.15;76.10
69247;BME280;56358;56.328;43.992;2024-01-27T06:26:45;100913.00;;;-6.07;76.03
69247;BME280;56358;56.328;43.992;2024-01-27T06:28:45;100813.06;;;-6.57;75.90
69247;BME280;56358;56.328;43.992;2024-01-27T06:30:46;100916.41;;;-5.95;75.99
69247;BME280;56358;56.328;43.992;2024-01-27T06:32:47;100915.50;;;-5.91;76.04
69247;BME280;56358;56.328;43.992;2024-01-27T06:34:47;100916.38;;;-5.89;76.36
69247;BME280;56358;56.328;43.992;2024-01-27T06:36:48;100936.38;;;-5.88;76.20
69247;BME280;56358;56.328;43.992;2024-01-27T06:38:49;100925.06;;;-5.87;76.19
69247;BME280;56358;56.328;43.992;2024-01-27T06:40:49;100920.75;;;-5.86;76.02
69247;BME280;56358;56.328;43.992;2024-01-27T06:42:50;100919.00;;;-5.89;76.04
69247;BME280;56358;56.328;43.992;2024-01-27T06:44:51;100928.56;;;-5.83;76.22
69247;BME280;56358;56.328;43.992;2024-01-27T06:46:51;100907.69;;;-5.94;76.11
69247;BME280;56358;56.328;43.992;2024-01-27T06:48:52;100929.44;;;-5.86;76.08
69247;BME280;56358;56.328;43.992;2024-01-27T06:50:53;100850.41;;;-6.33;76.13
69247;BME280;56358;56.328;43.992;2024-01-27T06:52:54;100860.81;;;-6.28;76.35
69247;BME280;56358;56.328;43.992;2024-01-27T06:54:54;100918.13;;;-5.85;76.62
69247;BME280;56358;56.328;43.992;2024-01-27T06:56:55;100922.44;;;-5.81;76.63
69247;BME280;56358;56.328;43.992;2024-01-27T06:58:56;100920.69;;;-5.80;76.57
69247;BME280;56358;56.328;43.992;2024-01-27T07:00:56;100848.66;;;-6.34;76.27
69247;BME280;56358;56.328;43.992;2024-01-27T07:02:58;100929.38;;;-5.75;76.31
69247;BME280;56358;56.328;43.992;2024-01-27T07:04:58;100924.19;;;-5.83;76.42
69247;BME280;56358;56.328;43.992;2024-01-27T07:06:59;100925.06;;;-5.82;76.36
69247;BME280;56358;56.328;43.992;2024-01-27T07:09:00;100952.00;;;-5.66;76.19
69247;BME280;56358;56.328;43.992;2024-01-27T07:11:00;100932.00;;;-5.69;76.50
69247;BME280;56358;56.328;43.992;2024-01-27T07:13:02;100862.50;;;-6.02;76.32
69247;BME280;56358;56.328;43.992;2024-01-27T07:15:02;100920.66;;;-5.68;76.46
69247;BME280;56358;56.328;43.992;2024-01-27T07:17:05;100915.41;;;-5.63;76.52
69247;BME280;56358;56.328;43.992;2024-01-27T07:19:06;100931.91;;;-5.53;76.56
69247;BME280;56358;56.328;43.992;2024-01-27T07:21:07;100940.56;;;-5.39;76.62
69247;BME280;56358;56.328;43.992;2024-01-27T07:23:08;100936.22;;;-5.37;76.56
69247;BME280;56358;56.328;43.992;2024-01-27T07:25:08;100937.91;;;-5.30;76.20
69247;BME280;56358;56.328;43.992;2024-01-27T07:27:12;100941.34;;;-5.23;76.32
69247;BME280;56358;56.328;43.992;2024-01-27T07:29:13;100923.09;;;-5.31;76.05
69247;BME280;56358;56.328;43.992;2024-01-27T07:31:14;100950.88;;;-5.16;76.32
69247;BME280;56358;56.328;43.992;2024-01-27T07:33:15;100946.53;;;-5.14;76.15
69247;BME280;56358;56.328;43.992;2024-01-27T07:35:16;100884.03;;;-5.59;75.83
69247;BME280;56358;56.328;43.992;2024-01-27T07:37:16;100951.78;;;-5.18;75.41
69247;BME280;56358;56.328;43.992;2024-01-27T07:39:17;100950.91;;;-5.17;75.77
69247;BME280;56358;56.328;43.992;2024-01-27T07:41:18;100948.28;;;-5.16;75.86
69247;BME280;56358;56.328;43.992;2024-01-27T07:43:18;100957.03;;;-5.17;75.88
69247;BME280;56358;56.328;43.992;2024-01-27T07:45:19;100969.28;;;-5.30;76.31
69247;BME280;56358;56.328;43.992;2024-01-27T07:47:20;100920.53;;;-5.37;76.17
69247;BME280;56358;56.328;43.992;2024-01-27T07:49:20;100945.69;;;-5.20;76.25
69247;BME280;56358;56.328;43.992;2024-01-27T07:51:21;100845.81;;;-5.77;76.28
69247;BME280;56358;56.328;43.992;2024-01-27T07:53:22;100867.47;;;-5.55;76.16
69247;BME280;56358;56.328;43.992;2024-01-27T07:55:22;100961.25;;;-4.99;76.19
69247;BME280;56358;56.328;43.992;2024-01-27T07:57:24;100944.75;;;-5.07;75.94
69247;BME280;56358;56.328;43.992;2024-01-27T07:59:24;100877.00;;;-5.46;75.74
69247;BME280;56358;56.328;43.992;2024-01-27T08:01:25;100965.59;;;-4.90;75.92
69247;BME280;56358;56.328;43.992;2024-01-27T08:03:25;100962.91;;;-4.84;75.79
69247;BME280;56358;56.328;43.992;2024-01-27T08:05:26;100961.16;;;-4.85;75.55
69247;BME280;56358;56.328;43.992;2024-01-27T08:07:27;100967.22;;;-4.80;75.41
69247;BME280;56358;56.328;43.992;2024-01-27T08:09:27;100965.53;;;-4.81;75.42
69247;BME280;56358;56.328;43.992;2024-01-27T08:11:28;100962.84;;;-4.75;75.66
69247;BME280;56358;56.328;43.992;2024-01-27T08:13:28;100851.72;;;-5.39;75.61
69247;BME280;56358;56.328;43.992;2024-01-27T08:15:29;100800.47;;;-5.63;75.70
69247;BME280;56358;56.328;43.992;2024-01-27T08:17:30;100887.25;;;-5.12;75.67
69247;BME280;56358;56.328;43.992;2024-01-27T08:19:31;100967.16;;;-4.69;75.00
69247;BME280;56358;56.328;43.992;2024-01-27T08:21:32;100966.34;;;-4.73;75.26
69247;BME280;56358;56.328;43.992;2024-01-27T08:23:32;100907.28;;;-5.11;75.30
69247;BME280;56358;56.328;43.992;2024-01-27T08:25:33;100982.88;;;-4.71;75.60
69247;BME280;56358;56.328;43.992;2024-01-27T08:27:34;100972.56;;;-4.92;75.48
69247;BME280;56358;56.328;43.992;2024-01-27T08:29:35;100981.09;;;-4.67;75.54
69247;BME280;56358;56.328;43.992;2024-01-27T08:31:35;100969.78;;;-4.71;75.22
69247;BME280;56358;56.328;43.992;2024-01-27T08:33:38;100973.22;;;-4.64;75.37
69247;BME280;56358;56.328;43.992;2024-01-27T08:35:39;100891.59;;;-5.11;75.08
69247;BME280;56358;56.328;43.992;2024-01-27T08:37:39;100987.97;;;-4.52;75.54
69247;BME280;56358;56.328;43.992;2024-01-27T08:39:40;100973.19;;;-4.58;75.40
69247;BME280;56358;56.328;43.992;2024-01-27T08:41:41;100993.16;;;-4.44;75.16
69247;BME280;56358;56.328;43.992;2024-01-27T08:43:41;100992.25;;;-4.40;75.13
69247;BME280;56358;56.328;43.992;2024-01-27T08:45:42;100997.44;;;-4.35;75.29
69247;BME280;56358;56.328;43.992;2024-01-27T08:47:43;100987.84;;;-4.33;75.19
69247;BME280;56358;56.328;43.992;2024-01-27T08:49:43;100986.09;;;-4.34;75.11
69247;BME280;56358;56.328;43.992;2024-01-27T08:51:44;100971.31;;;-4.40;75.13
69247;BME280;56358;56.328;43.992;2024-01-27T08:53:45;100991.34;;;-4.36;74.85
69247;BME280;56358;56.328;43.992;2024-01-27T08:55:52;100940.00;;;-4.51;74.90
69247;BME280;56358;56.328;43.992;2024-01-27T08:57:52;100980.75;;;-4.24;74.67
69247;BME280;56358;56.328;43.992;2024-01-27T08:59:53;100992.91;;;-4.15;74.64
69247;BME280;56358;56.328;43.992;2024-01-27T09:01:54;100985.03;;;-4.13;74.30
69247;BME280;56358;56.328;43.992;2024-01-27T09:03:54;100989.38;;;-4.09;74.58
69247;BME280;56358;56.328;43.992;2024-01-27T09:05:55;100982.44;;;-4.13;74.50
69247;BME280;56358;56.328;43.992;2024-01-27T09:07:55;100841.84;;;-4.97;74.49
69247;BME280;56358;56.328;43.992;2024-01-27T09:09:56;100900.75;;;-4.52;74.61
69247;BME280;56358;56.328;43.992;2024-01-27T09:11:57;100897.28;;;-4.55;74.30
69247;BME280;56358;56.328;43.992;2024-01-27T09:13:57;100966.66;;;-4.10;74.09
69247;BME280;56358;56.328;43.992;2024-01-27T09:15:58;100960.66;;;-4.18;73.94
69247;BME280;56358;56.328;43.992;2024-01-27T09:17:59;100971.06;;;-4.15;74.27
69247;BME280;56358;56.328;43.992;2024-01-27T09:20:00;100969.38;;;-4.19;74.39
69247;BME280;56358;56.328;43.992;2024-01-27T09:22:00;100982.38;;;-4.07;74.65
69247;BME280;56358;56.328;43.992;2024-01-27T09:24:01;100984.97;;;-4.04;74.58
69247;BME280;56358;56.328;43.992;2024-01-27T09:26:02;100932.97;;;-4.44;74.71
69247;BME280;56358;56.328;43.992;2024-01-27T09:28:03;100991.94;;;-4.05;74.98
69247;BME280;56358;56.328;43.992;2024-01-27T09:30:05;100988.44;;;-4.04;74.83
69247;BME280;56358;56.328;43.992;2024-01-27T09:32:06;100966.78;;;-4.21;74.96
69247;BME280;56358;56.328;43.992;2024-01-27T09:34:06;100991.97;;;-4.08;75.33
69247;BME280;56358;56.328;43.992;2024-01-27T09:36:07;101000.69;;;-4.06;75.35
69247;BME280;56358;56.328;43.992;2024-01-27T09:38:07;100998.09;;;-4.07;75.12
69247;BME280;56358;56.328;43.992;2024-01-27T09:40:10;100988.56;;;-4.16;75.08
69247;BME280;56358;56.328;43.992;2024-01-27T09:42:13;101005.06;;;-4.08;75.27
69247;BME280;56358;56.328;43.992;2024-01-27T09:44:18;101005.97;;;-4.10;75.33
69247;BME280;56358;56.328;43.992;2024-01-27T09:46:22;100993.03;;;-4.27;75.61
69247;BME280;56358;56.328;43.992;2024-01-27T09:48:23;101010.34;;;-4.12;75.77
69247;BME280;56358;56.328;43.992;2024-01-27T09:50:24;100860.22;;;-5.08;75.83
69247;BME280;56358;56.328;43.992;2024-01-27T09:52:25;101013.88;;;-4.16;75.80
69247;BME280;56358;56.328;43.992;2024-01-27T09:54:25;100973.06;;;-4.41;75.68
69247;BME280;56358;56.328;43.992;2024-01-27T09:56:27;101011.28;;;-4.19;75.76
69247;BME280;56358;56.328;43.992;2024-01-27T09:58:29;101015.63;;;-4.18;76.08
69247;BME280;56358;56.328;43.992;2024-01-27T10:00:30;100956.59;;;-4.53;75.86
69247;BME280;56358;56.328;43.992;2024-01-27T10:02:31;100940.09;;;-4.66;76.06
69247;BME280;56358;56.328;43.992;2024-01-27T10:04:33;101026.97;;;-4.16;76.31
69247;BME280;56358;56.328;43.992;2024-01-27T10:06:34;101023.56;;;-4.29;76.24
69247;BME280;56358;56.328;43.992;2024-01-27T10:08:34;101038.34;;;-4.19;76.21
69247;BME280;56358;56.328;43.992;2024-01-27T10:10:35;101020.06;;;-4.25;76.46
69247;BME280;56358;56.328;43.992;2024-01-27T10:12:40;101031.38;;;-4.20;76.51
69247;BME280;56358;56.328;43.992;2024-01-27T10:14:43;101032.22;;;-4.19;76.63
69247;BME280;56358;56.328;43.992;2024-01-27T10:16:49;101034.88;;;-4.23;76.58
69247;BME280;56358;56.328;43.992;2024-01-27T10:19:02;101029.59;;;-4.18;76.49
69247;BME280;56358;56.328;43.992;2024-01-27T10:21:15;100989.66;;;-4.42;76.51
69247;BME280;56358;56.328;43.992;2024-01-27T10:23:16;101035.72;;;-4.17;76.58
69247;BME280;56358;56.328;43.992;2024-01-27T10:25:17;101006.94;;;-4.21;76.41